createdAt,value
2018-11-07T00:00:51.228Z,51.87
2018-11-07T00:03:22.233Z,55.10
2018-11-07T00:05:53.600Z,52.70
2018-11-07T00:08:24.798Z,46.13
2018-11-07T00:11:03.330Z,50.57
2018-11-07T00:13:35.247Z,49.00
2018-11-07T00:16:07.166Z,52.20
2018-11-07T00:18:39.201Z,53.23
2018-11-07T00:21:10.635Z,52.67
2018-11-07T00:23:42.546Z,48.87
2018-11-07T00:26:14.970Z,57.10
2018-11-07T00:28:47.565Z,48.60
2018-11-07T00:31:18.992Z,48.97
2018-11-07T00:33:50.433Z,49.10
2018-11-07T00:36:22.248Z,49.13
2018-11-07T00:38:54.419Z,53.90
2018-11-07T00:41:26.550Z,49.47
2018-11-07T00:43:58.504Z,50.30
2018-11-07T00:46:29.707Z,49.30
2018-11-07T00:49:01.579Z,48.90
2018-11-07T00:51:33.380Z,44.77
2018-11-07T00:54:04.781Z,44.53
2018-11-07T00:56:36.700Z,46.93
2018-11-07T00:59:07.730Z,54.77
2018-11-07T01:01:38.777Z,49.10
2018-11-07T01:04:10.650Z,48.50
2018-11-07T01:06:42.262Z,45.43
2018-11-07T01:09:13.911Z,50.13
2018-11-07T01:11:45.412Z,50.17
2018-11-07T01:14:16.851Z,47.43
2018-11-07T01:16:48.905Z,46.90
2018-11-07T01:19:20.739Z,44.53
2018-11-07T01:21:51.925Z,45.83
2018-11-07T01:24:23.885Z,42.63
2018-11-07T01:26:54.925Z,47.50
2018-11-07T01:29:26.977Z,45.20
2018-11-07T01:31:58.091Z,48.00
2018-11-07T01:34:30.010Z,47.57
2018-11-07T01:37:02.021Z,50.53
2018-11-07T01:39:33.090Z,48.43
2018-11-07T01:42:04.445Z,45.30
2018-11-07T01:44:35.330Z,47.00
2018-11-07T01:47:06.467Z,46.27
2018-11-07T01:49:39.157Z,46.83
2018-11-07T01:52:10.554Z,45.80
2018-11-07T01:54:41.925Z,44.37
2018-11-07T01:57:13.072Z,48.97
2018-11-07T01:59:44.533Z,43.63
2018-11-07T02:02:16.543Z,45.17
2018-11-07T02:04:47.577Z,44.87
2018-11-07T02:07:19.952Z,44.87
2018-11-07T02:09:51.802Z,43.83
2018-11-07T02:12:33.160Z,50.03
2018-11-07T02:15:04.222Z,48.17
2018-11-07T02:17:35.638Z,46.77
2018-11-07T02:20:07.468Z,45.00
2018-11-07T02:22:38.479Z,48.40
2018-11-07T02:25:10.562Z,45.57
2018-11-07T02:27:43.741Z,50.20
2018-11-07T02:30:17.014Z,42.40
2018-11-07T02:32:48.164Z,43.90
2018-11-07T02:35:19.220Z,43.97
2018-11-07T02:37:50.583Z,46.33
2018-11-07T02:40:22.415Z,45.13
2018-11-07T02:42:54.385Z,49.17
2018-11-07T02:45:25.396Z,43.43
2018-11-07T02:47:57.703Z,45.47
2018-11-07T02:50:29.512Z,44.53
2018-11-07T02:53:02.065Z,48.30
2018-11-07T02:55:33.565Z,41.27
2018-11-07T02:58:06.256Z,42.50
2018-11-07T03:00:39.173Z,44.63
2018-11-07T03:03:10.632Z,46.63
2018-11-07T03:05:42.056Z,43.03
2018-11-07T03:08:13.919Z,45.30
2018-11-07T03:10:46.473Z,47.43
2018-11-07T03:13:18.161Z,45.27
2018-11-07T03:15:49.684Z,45.47
2018-11-07T03:18:20.735Z,46.93
2018-11-07T03:20:52.687Z,47.47
2018-11-07T03:23:24.743Z,46.47
2018-11-07T03:25:55.869Z,45.37
2018-11-07T03:28:27.317Z,46.60
2018-11-07T03:30:58.725Z,42.30
2018-11-07T03:33:30.073Z,44.93
2018-11-07T03:36:02.024Z,47.37
2018-11-07T03:38:35.797Z,50.20
2018-11-07T03:41:06.881Z,50.27
2018-11-07T03:43:38.096Z,43.33
2018-11-07T03:46:09.094Z,41.00
2018-11-07T03:48:40.562Z,46.43
2018-11-07T03:51:11.746Z,51.30
2018-11-07T03:53:42.722Z,47.50
2018-11-07T03:56:13.826Z,43.07
2018-11-07T03:58:46.368Z,45.67
2018-11-07T04:01:18.281Z,49.37
2018-11-07T04:03:49.609Z,46.73
2018-11-07T04:06:21.485Z,47.23
2018-11-07T04:08:53.955Z,46.53
2018-11-07T04:11:25.390Z,44.13
2018-11-07T04:13:57.503Z,46.83
2018-11-07T04:16:29.570Z,44.70
2018-11-07T04:19:00.729Z,47.40
2018-11-07T04:21:33.491Z,43.60
2018-11-07T04:24:05.294Z,47.83
2018-11-07T04:26:37.496Z,41.67
2018-11-07T04:29:09.602Z,46.40
2018-11-07T04:31:41.751Z,38.87
2018-11-07T04:34:12.823Z,45.83
2018-11-07T04:36:43.895Z,42.80
2018-11-07T04:39:15.881Z,40.53
2018-11-07T04:41:47.214Z,47.70
2018-11-07T04:44:18.298Z,46.03
2018-11-07T04:46:49.340Z,42.50
2018-11-07T04:49:21.769Z,42.20
2018-11-07T04:51:54.706Z,41.83
2018-11-07T04:54:25.889Z,42.63
2018-11-07T04:56:57.303Z,39.43
2018-11-07T04:59:29.369Z,44.27
2018-11-07T05:02:00.903Z,43.60
2018-11-07T05:04:32.744Z,42.50
2018-11-07T05:07:04.142Z,45.10
2018-11-07T05:09:36.982Z,39.87
2018-11-07T05:12:08.273Z,41.17
2018-11-07T05:14:41.953Z,39.57
2018-11-07T05:17:13.338Z,40.57
2018-11-07T05:19:44.856Z,41.33
2018-11-07T05:22:17.182Z,40.90
2018-11-07T05:24:50.534Z,39.73
2018-11-07T05:27:22.033Z,36.43
2018-11-07T05:29:54.422Z,35.83
2018-11-07T05:32:26.899Z,45.37
2018-11-07T05:34:59.664Z,37.10
2018-11-07T05:37:32.585Z,37.47
2018-11-07T05:40:04.939Z,35.83
2018-11-07T05:42:36.412Z,39.53
2018-11-07T05:45:07.718Z,40.30
2018-11-07T05:47:39.006Z,41.27
2018-11-07T05:50:10.822Z,39.67
2018-11-07T05:52:44.860Z,40.83
2018-11-07T05:55:16.329Z,42.50
2018-11-07T05:57:48.108Z,43.90
2018-11-07T06:00:19.544Z,38.63
2018-11-07T06:02:51.882Z,38.80
2018-11-07T06:05:22.976Z,39.97
2018-11-07T06:07:54.767Z,44.90
2018-11-07T06:10:27.405Z,38.90
2018-11-07T06:12:59.185Z,42.40
2018-11-07T06:15:31.602Z,38.27
2018-11-07T06:18:02.672Z,39.03
2018-11-07T06:20:34.239Z,39.67
2018-11-07T06:23:05.361Z,40.83
2018-11-07T06:25:38.101Z,32.97
2018-11-07T06:28:10.079Z,34.60
2018-11-07T06:30:41.735Z,37.73
2018-11-07T06:33:12.824Z,37.53
2018-11-07T06:35:43.895Z,35.87
2018-11-07T06:38:16.417Z,33.77
2018-11-07T06:40:47.557Z,35.90
2018-11-07T06:43:18.923Z,38.80
2018-11-07T06:45:51.292Z,37.90
2018-11-07T06:48:24.673Z,35.20
2018-11-07T06:50:58.314Z,38.77
2018-11-07T06:53:31.240Z,35.90
2018-11-07T06:56:02.437Z,35.43
2018-11-07T06:58:33.883Z,37.63
2018-11-07T07:01:06.076Z,36.53
2018-11-07T07:03:37.281Z,32.53
2018-11-07T07:06:09.848Z,35.63
2018-11-07T07:08:41.378Z,40.67
2018-11-07T07:11:13.969Z,32.27
2018-11-07T07:13:45.021Z,31.53
2018-11-07T07:16:17.515Z,29.70
2018-11-07T07:18:49.443Z,28.23
2018-11-07T07:21:21.449Z,28.40
2018-11-07T07:23:53.936Z,27.47
2018-11-07T07:26:26.237Z,26.07
2018-11-07T07:29:00.324Z,26.27
2018-11-07T07:31:31.812Z,27.27
2018-11-07T07:34:03.243Z,35.80
2018-11-07T07:36:37.243Z,27.93
2018-11-07T07:39:08.050Z,30.33
2018-11-07T07:41:46.030Z,29.63
2018-11-07T07:44:19.039Z,32.87
2018-11-07T07:46:50.946Z,35.33
2018-11-07T07:49:24.045Z,34.40
2018-11-07T07:51:56.685Z,36.27
2018-11-07T07:54:37.556Z,39.17
2018-11-07T07:57:11.165Z,31.93
2018-11-07T07:59:42.176Z,38.73
2018-11-07T08:02:14.146Z,42.20
2018-11-07T08:04:45.325Z,33.90
2018-11-07T08:07:20.313Z,38.47
2018-11-07T08:09:49.545Z,36.97
2018-11-07T08:12:21.294Z,35.43
2018-11-07T08:14:52.339Z,37.60
2018-11-07T08:17:23.415Z,32.43
2018-11-07T08:19:55.100Z,38.53
2018-11-07T08:22:27.044Z,41.03
2018-11-07T08:24:58.164Z,35.37
2018-11-07T08:27:29.315Z,37.73
2018-11-07T08:30:01.440Z,43.03
2018-11-07T08:32:33.051Z,40.80
2018-11-07T08:35:04.586Z,44.27
2018-11-07T08:37:37.127Z,43.33
2018-11-07T08:40:13.713Z,38.70
2018-11-07T08:42:44.837Z,39.10
2018-11-07T08:45:16.247Z,39.50
2018-11-07T08:47:47.877Z,41.63
2018-11-07T08:50:21.485Z,42.97
2018-11-07T08:52:53.168Z,45.30
2018-11-07T08:55:24.964Z,39.97
2018-11-07T08:57:56.045Z,35.97
2018-11-07T09:00:27.107Z,40.67
2018-11-07T09:02:59.774Z,36.73
2018-11-07T09:05:30.836Z,40.13
2018-11-07T09:08:02.305Z,37.57
2018-11-07T09:10:35.070Z,40.47
2018-11-07T09:13:07.014Z,40.37
2018-11-07T09:15:38.095Z,39.23
2018-11-07T09:18:09.601Z,37.83
2018-11-07T09:20:40.652Z,37.57
2018-11-07T09:23:11.737Z,39.03
2018-11-07T09:25:43.614Z,39.23
2018-11-07T09:28:16.197Z,40.67
2018-11-07T09:30:47.219Z,35.60
2018-11-07T09:33:18.715Z,33.80
2018-11-07T09:38:22.505Z,31.87
2018-11-07T09:40:54.008Z,31.33
2018-11-07T09:43:25.089Z,33.87
2018-11-07T09:45:57.288Z,34.80
2018-11-07T09:48:28.359Z,25.90
2018-11-07T09:51:00.799Z,29.83
2018-11-07T09:53:31.946Z,24.10
2018-11-07T09:56:03.628Z,21.80
2018-11-07T09:58:35.432Z,21.33
2018-11-07T10:01:06.893Z,25.93
2018-11-07T10:03:38.160Z,16.63
2018-11-07T10:06:09.512Z,21.60
2018-11-07T10:08:40.680Z,19.27
2018-11-07T10:11:11.763Z,16.30
2018-11-07T10:13:42.849Z,15.43
2018-11-07T10:16:14.305Z,14.27
2018-11-07T10:18:47.784Z,13.57
2018-11-07T10:21:19.179Z,16.60
2018-11-07T10:23:51.481Z,16.00
2018-11-07T10:26:23.669Z,13.80
2018-11-07T10:28:56.420Z,15.03
2018-11-07T10:31:27.811Z,14.60
2018-11-07T10:34:00.339Z,11.53
2018-11-07T10:36:31.430Z,14.03
2018-11-07T10:39:03.653Z,12.03
2018-11-07T10:41:36.496Z,10.70
2018-11-07T10:44:08.632Z,12.60
2018-11-07T10:46:39.680Z,11.97
2018-11-07T10:49:11.311Z,8.23
2018-11-07T10:51:43.424Z,11.53
2018-11-07T10:54:15.435Z,8.83
2018-11-07T10:56:46.863Z,9.03
2018-11-07T10:59:18.543Z,9.47
2018-11-07T11:02:23.491Z,7.93
2018-11-07T11:04:54.604Z,9.50
2018-11-07T11:07:26.251Z,8.87
2018-11-07T11:09:58.379Z,9.60
2018-11-07T11:12:29.845Z,9.17
2018-11-07T11:15:01.716Z,10.37
2018-11-07T11:17:34.238Z,7.90
2018-11-07T11:20:05.934Z,9.10
2018-11-07T11:22:37.080Z,7.40
2018-11-07T11:25:09.359Z,9.57
2018-11-07T11:27:40.465Z,8.00
2018-11-07T11:30:12.692Z,6.57
2018-11-07T11:32:43.728Z,7.67
2018-11-07T11:35:14.881Z,6.87
2018-11-07T11:37:46.325Z,7.57
2018-11-07T11:40:17.389Z,6.63
2018-11-07T11:42:53.240Z,6.50
2018-11-07T11:45:24.360Z,7.10
2018-11-07T11:47:55.839Z,6.17
2018-11-07T11:50:27.087Z,6.17
2018-11-07T11:52:58.164Z,5.40
2018-11-07T11:55:29.197Z,6.53
2018-11-07T11:58:01.408Z,8.03
2018-11-07T12:00:32.520Z,5.93
2018-11-07T12:03:04.536Z,7.60
2018-11-07T12:05:36.499Z,7.20
2018-11-07T12:08:08.525Z,10.10
2018-11-07T12:10:39.695Z,5.73
2018-11-07T12:13:12.165Z,6.60
2018-11-07T12:15:45.391Z,6.53
2018-11-07T12:18:16.464Z,5.00
2018-11-07T12:20:47.551Z,6.20
2018-11-07T12:23:18.602Z,9.33
2018-11-07T12:25:49.685Z,4.90
2018-11-07T12:28:21.813Z,6.53
2018-11-07T12:30:53.267Z,5.10
2018-11-07T12:33:25.636Z,5.10
2018-11-07T12:35:58.288Z,4.57
2018-11-07T12:38:30.673Z,4.93
2018-11-07T12:41:01.804Z,6.17
2018-11-07T12:43:33.895Z,5.13
2018-11-07T12:46:06.230Z,5.27
2018-11-07T12:48:38.729Z,6.37
2018-11-07T12:51:11.104Z,7.73
2018-11-07T12:53:44.188Z,9.67
2018-11-07T12:56:15.283Z,5.53
2018-11-07T12:58:46.378Z,5.63
2018-11-07T13:01:19.577Z,7.40
2018-11-07T13:03:53.752Z,5.20
2018-11-07T13:06:24.978Z,5.00
2018-11-07T13:08:56.933Z,5.93
2018-11-07T13:11:28.072Z,5.93
2018-11-07T13:13:59.027Z,7.17
2018-11-07T13:16:31.159Z,6.07
2018-11-07T13:19:03.640Z,5.67
2018-11-07T13:21:34.661Z,9.40
2018-11-07T13:24:06.130Z,6.00
2018-11-07T13:26:38.474Z,7.37
2018-11-07T13:29:09.592Z,7.07
2018-11-07T13:31:41.107Z,6.53
2018-11-07T13:34:13.811Z,8.60
2018-11-07T13:36:46.347Z,6.50
2018-11-07T13:39:18.156Z,8.27
2018-11-07T13:41:48.891Z,7.73
2018-11-07T13:44:20.366Z,5.87
2018-11-07T13:46:51.509Z,6.93
2018-11-07T13:49:23.959Z,7.10
2018-11-07T13:51:54.975Z,6.00
2018-11-07T13:54:28.330Z,6.57
2018-11-07T13:57:00.338Z,7.30
2018-11-07T13:59:31.771Z,7.10
2018-11-07T14:02:03.694Z,7.87
2018-11-07T14:04:35.277Z,6.83
2018-11-07T14:07:07.074Z,6.43
2018-11-07T14:09:38.685Z,8.23
2018-11-07T14:12:10.062Z,5.80
2018-11-07T14:14:41.135Z,6.83
2018-11-07T14:17:12.274Z,6.17
2018-11-07T14:19:44.260Z,5.60
2018-11-07T14:22:16.679Z,6.37
2018-11-07T14:24:47.705Z,6.03
2018-11-07T14:27:18.934Z,5.90
2018-11-07T14:29:51.141Z,5.70
2018-11-07T14:32:22.264Z,6.30
2018-11-07T14:34:53.291Z,11.77
2018-11-07T14:37:24.826Z,6.17
2018-11-07T14:39:56.447Z,6.83
2018-11-07T14:42:28.435Z,6.20
2018-11-07T14:44:59.668Z,7.67
2018-11-07T14:47:30.731Z,6.43
2018-11-07T14:50:02.700Z,6.57
2018-11-07T14:52:35.021Z,5.27
2018-11-07T14:55:06.172Z,7.90
2018-11-07T14:57:37.318Z,6.77
2018-11-07T15:00:12.672Z,7.23
2018-11-07T15:02:44.435Z,8.30
2018-11-07T15:05:16.281Z,6.30
2018-11-07T15:07:49.864Z,5.90
2018-11-07T15:10:22.001Z,6.00
2018-11-07T15:12:53.062Z,5.40
2018-11-07T15:15:24.562Z,7.67
2018-11-07T15:17:57.752Z,6.47
2018-11-07T15:20:28.835Z,8.73
2018-11-07T15:23:00.850Z,8.13
2018-11-07T15:25:32.365Z,6.40
2018-11-07T15:28:04.499Z,7.00
2018-11-07T15:30:36.379Z,8.37
2018-11-07T15:33:07.842Z,5.80
2018-11-07T15:35:41.872Z,6.60
2018-11-07T15:38:13.886Z,5.70
2018-11-07T15:40:45.127Z,5.70
2018-11-07T15:43:16.249Z,7.40
2018-11-07T15:45:49.325Z,5.93
2018-11-07T15:48:20.412Z,8.53
2018-11-07T15:51:08.464Z,5.60
2018-11-07T15:53:39.668Z,6.00
2018-11-07T15:56:11.173Z,7.60
2018-11-07T15:58:42.279Z,10.73
2018-11-07T16:01:14.404Z,7.10
2018-11-07T16:03:51.689Z,8.07
2018-11-07T16:06:23.007Z,8.90
2018-11-07T16:08:55.237Z,8.23
2018-11-07T16:11:30.874Z,9.23
2018-11-07T16:14:03.276Z,9.03
2018-11-07T16:16:40.317Z,7.70
2018-11-07T16:19:12.703Z,11.00
2018-11-07T16:21:57.049Z,7.47
2018-11-07T16:24:28.126Z,9.10
2018-11-07T16:26:59.135Z,8.93
2018-11-07T16:29:30.460Z,8.03
2018-11-07T16:32:02.433Z,9.13
2018-11-07T16:34:33.548Z,7.17
2018-11-07T16:37:11.903Z,8.97
2018-11-07T16:39:45.045Z,10.63
2018-11-07T16:42:17.595Z,8.73
2018-11-07T16:44:48.707Z,9.40
2018-11-07T16:47:20.823Z,10.73
2018-11-07T16:49:51.869Z,9.73
2018-11-07T16:52:31.412Z,7.77
2018-11-07T16:55:02.860Z,6.87
2018-11-07T16:57:35.499Z,9.47
2018-11-07T17:00:09.197Z,9.87
2018-11-07T17:02:42.556Z,9.00
2018-11-07T17:05:16.699Z,9.97
2018-11-07T17:07:49.026Z,11.57
2018-11-07T17:10:20.629Z,9.77
2018-11-07T17:12:53.062Z,10.53
2018-11-07T17:15:25.138Z,11.73
2018-11-07T17:17:56.514Z,10.77
2018-11-07T17:20:29.919Z,10.73
2018-11-07T17:23:03.449Z,9.67
2018-11-07T17:25:35.876Z,10.97
2018-11-07T17:28:08.565Z,10.50
2018-11-07T17:30:42.164Z,11.27
2018-11-07T17:33:13.655Z,13.57
2018-11-07T17:35:48.948Z,11.57
2018-11-07T17:38:21.182Z,12.27
2018-11-07T17:40:58.001Z,16.23
2018-11-07T17:43:32.108Z,16.10
2018-11-07T17:46:03.692Z,14.13
2018-11-07T17:48:35.529Z,22.10
2018-11-07T17:51:08.538Z,19.60
2018-11-07T17:53:39.716Z,19.17
2018-11-07T17:56:10.802Z,16.27
2018-11-07T17:58:43.854Z,20.83
2018-11-07T18:01:16.349Z,16.43
2018-11-07T18:03:48.862Z,17.00
2018-11-07T18:06:28.253Z,16.77
2018-11-07T18:09:01.167Z,15.77
2018-11-07T18:11:32.446Z,14.47
2018-11-07T18:14:04.563Z,15.37
2018-11-07T18:16:41.400Z,14.10
2018-11-07T18:19:14.790Z,16.37
2018-11-07T18:21:47.217Z,16.50
2018-11-07T18:24:24.336Z,13.83
2018-11-07T18:26:55.351Z,13.53
2018-11-07T18:29:28.537Z,13.47
2018-11-07T18:32:02.155Z,13.67
2018-11-07T18:34:35.816Z,13.37
2018-11-07T18:37:07.838Z,11.20
2018-11-07T18:39:39.777Z,16.27
2018-11-07T18:42:11.835Z,23.50
2018-11-07T18:44:43.888Z,20.80
2018-11-07T18:47:14.981Z,35.13
2018-11-07T18:49:46.038Z,42.20
2018-11-07T18:52:19.473Z,52.93
2018-11-07T18:54:50.564Z,36.77
2018-11-07T18:57:21.779Z,27.60
2018-11-07T18:59:52.943Z,23.97
2018-11-07T19:02:25.008Z,22.47
2018-11-07T19:04:56.983Z,19.63
2018-11-07T19:07:28.143Z,15.93
2018-11-07T19:10:00.512Z,13.37
2018-11-07T19:12:35.961Z,12.37
2018-11-07T19:15:17.049Z,13.10
2018-11-07T19:17:52.666Z,13.30
2018-11-07T19:20:27.788Z,12.33
2018-11-07T19:23:01.101Z,12.60
2018-11-07T19:25:33.059Z,15.20
2018-11-07T19:28:05.092Z,13.10
2018-11-07T19:30:37.150Z,11.97
2018-11-07T19:33:09.083Z,11.00
2018-11-07T19:35:41.256Z,12.43
2018-11-07T19:38:12.857Z,12.33
2018-11-07T19:40:44.877Z,12.33
2018-11-07T19:43:16.036Z,12.53
2018-11-07T19:45:47.124Z,13.27
2018-11-07T19:48:18.840Z,12.37
2018-11-07T19:50:54.358Z,11.33
2018-11-07T19:53:26.792Z,10.27
2018-11-07T19:56:00.506Z,11.63
2018-11-07T19:58:31.680Z,17.33
2018-11-07T20:01:03.741Z,11.83
2018-11-07T20:03:36.188Z,13.47
2018-11-07T20:06:07.502Z,13.10
2018-11-07T20:08:38.824Z,15.70
2018-11-07T20:11:10.435Z,10.80
2018-11-07T20:13:43.345Z,10.20
2018-11-07T20:16:14.992Z,12.20
2018-11-07T20:18:46.216Z,12.10
2018-11-07T20:21:19.438Z,14.10
2018-11-07T20:23:51.808Z,14.07
2018-11-07T20:26:24.726Z,12.47
2018-11-07T20:28:57.859Z,10.63
2018-11-07T20:31:28.896Z,13.63
2018-11-07T20:34:00.927Z,12.83
2018-11-07T20:36:32.035Z,9.90
2018-11-07T20:39:04.217Z,10.37
2018-11-07T20:41:35.752Z,10.43
2018-11-07T20:44:07.185Z,9.13
2018-11-07T20:46:38.669Z,13.20
2018-11-07T20:49:10.737Z,10.63
2018-11-07T20:51:41.775Z,10.10
2018-11-07T20:54:25.114Z,11.87
2018-11-07T20:56:57.279Z,8.77
2018-11-07T20:59:29.380Z,9.47
2018-11-07T21:02:00.570Z,10.80
2018-11-07T21:04:31.901Z,9.80
2018-11-07T21:07:04.106Z,12.03
2018-11-07T21:09:35.472Z,10.93
2018-11-07T21:12:07.343Z,14.03
2018-11-07T21:14:39.985Z,10.63
2018-11-07T21:17:12.317Z,12.03
2018-11-07T21:19:43.405Z,15.47
2018-11-07T21:22:14.906Z,8.87
2018-11-07T21:24:48.048Z,20.23
2018-11-07T21:27:19.814Z,14.13
2018-11-07T21:29:51.137Z,11.83
2018-11-07T21:32:23.059Z,10.87
2018-11-07T21:34:54.310Z,11.80
2018-11-07T21:37:26.289Z,11.33
2018-11-07T21:39:57.406Z,10.70
2018-11-07T21:42:30.663Z,12.67
2018-11-07T21:45:01.702Z,14.97
2018-11-07T21:47:32.745Z,14.10
2018-11-07T21:50:03.739Z,15.77
2018-11-07T21:52:34.829Z,14.27
2018-11-07T21:55:06.541Z,10.50
2018-11-07T21:57:37.914Z,15.43
2018-11-07T22:00:18.125Z,13.27
2018-11-07T22:02:52.573Z,11.57
2018-11-07T22:05:23.970Z,11.33
2018-11-07T22:07:54.997Z,11.83
2018-11-07T22:10:27.568Z,11.67
2018-11-07T22:12:59.525Z,9.90
2018-11-07T22:15:32.808Z,8.90
2018-11-07T22:18:05.225Z,12.00
2018-11-07T22:20:37.642Z,9.53
2018-11-07T22:23:08.759Z,9.17
2018-11-07T22:25:40.224Z,9.30
2018-11-07T22:28:11.668Z,11.47
2018-11-07T22:30:42.682Z,13.30
2018-11-07T22:33:14.269Z,9.23
2018-11-07T22:35:47.120Z,12.40
2018-11-07T22:38:18.793Z,8.10
2018-11-07T22:40:49.719Z,13.83
2018-11-07T22:43:21.703Z,8.80
2018-11-07T22:45:52.889Z,8.17
2018-11-07T22:48:24.494Z,10.60
2018-11-07T22:50:56.006Z,12.93
2018-11-07T22:53:28.411Z,16.80
2018-11-07T22:55:59.601Z,16.83
2018-11-07T22:58:31.050Z,27.37
2018-11-07T23:01:20.531Z,20.93
2018-11-07T23:03:53.099Z,30.47
2018-11-07T23:06:24.945Z,35.63
2018-11-07T23:08:56.808Z,21.03
2018-11-07T23:11:27.857Z,10.90
2018-11-07T23:13:59.636Z,10.00
2018-11-07T23:16:32.036Z,11.33
2018-11-07T23:19:03.118Z,11.47
2018-11-07T23:21:34.304Z,9.17
2018-11-07T23:24:05.807Z,10.47
2018-11-07T23:26:36.924Z,9.30
2018-11-07T23:29:08.451Z,10.57
2018-11-07T23:31:39.472Z,8.90
2018-11-07T23:34:11.024Z,8.87
2018-11-07T23:36:42.202Z,9.30
2018-11-07T23:39:13.217Z,7.47
2018-11-07T23:41:44.235Z,8.33
2018-11-07T23:44:15.337Z,12.77
2018-11-07T23:46:48.042Z,10.53
2018-11-07T23:49:19.271Z,8.77
2018-11-07T23:51:52.095Z,7.60
2018-11-07T23:54:24.652Z,9.13
2018-11-07T23:56:56.494Z,10.57
2018-11-07T23:59:27.525Z,9.27
